Corona, CA

9:49 PM PDT on April 25, 2015 (GMT -0700)
S. Corona-Horstheif Canyon | | Change Station
CLOSE
Current Station
Personal Weather Station
Location: Corona, CA
Elevation: 1415 ft
Nearby Weather Stations

Elev 1415 ft 33.73 °N, 117.43 °W | Updated 4 seconds ago

Overcast
Overcast
54.1 °F
Feels Like 54.1 °F
N
8.0
Wind Variable Wind from ESE
Gusts 10.0 mph

Today
High -- | Low -- °F
--% Chance of Precip.
Yesterday
High -- | Low -- °F
Precip. -- in
6:07 AM 7:28 PM
First Quarter, 52% visible
Pressure 29.87 in
Visibility 10.0 miles
Clouds Clear
Dew Point 47 °F
Humidity 78%
Rainfall 0.02 in
Snow Depth Not available.
UV 0 out of 12
Pollen 6.90 out of 12
Air Quality Not available.
Flu Activity Sporadic
METAR KAJO 260356Z AUTO 25006KT 10SM CLR 14/11 A2988 RMK AO2 T01380105 SLP114 $

More Conditions Fewer Conditions

Pressure 29.87 in
Visibility 10.0 miles
Clouds Clear
Dew Point 47 °F
Humidity 78%
Rainfall 0.02 in
Snow Depth Not available.
UV 0 out of 12
Pollen 6.90 out of 12
Air Quality Not available.
Flu Activity Sporadic
METAR KAJO 260356Z AUTO 25006KT 10SM CLR 14/11 A2988 RMK AO2 T01380105 SLP114 $

More Conditions Fewer Conditions

The full scope of the disaster following a powerful 7.8-magnitude earthquake in Nepal may not come into view for days, but global charities are already sending emergency aid. Click to see how you can help.

10-Day Weather Forecast

Almanac

Astronomy

Apr. 25, 2015 Rise Set
Actual Time
Civil Twilight
Nautical Twilight
Astronomical Twilight
Moon
Length of Visible Light
Length of Day
Tomorrow will be .
, % of the Moon is Illuminated

Today's Extremes

State Highs State Lows

Community

WunderPhotos

Upload Photos

1,816,938 photos uploaded!

WunderBlogs® & News

Nearby

Air Quality

  Air Quality AQ Index Pollutant
Not available.

Snow Depth

Station Depth Elevation

Earthquake Activity

City Distance Mag. Time & Date
Minimum magnitude displayed is 2.5.

Coastal Water Temperatures

Place Temperature

Stations

Nearby Weather Stations

Station Location Temp. Windchill Dew Point Humidity Wind Precip. Elev Updated Type